sensor_id;sensor_type;location;lat;lon;timestamp;P1;durP1;ratioP1;P2;durP2;ratioP2
67162;SDS011;54092;53.088;8.850;2023-02-28T00:00:06;9.57;;;4.72;;
67162;SDS011;54092;53.088;8.850;2023-02-28T00:02:35;12.43;;;5.37;;
67162;SDS011;54092;53.088;8.850;2023-02-28T00:05:01;12.63;;;5.40;;
67162;SDS011;54092;53.088;8.850;2023-02-28T00:07:28;12.02;;;4.63;;
67162;SDS011;54092;53.088;8.850;2023-02-28T00:09:57;11.23;;;5.13;;
67162;SDS011;54092;53.088;8.850;2023-02-28T00:12:22;11.60;;;5.45;;
67162;SDS011;54092;53.088;8.850;2023-02-28T00:14:48;10.63;;;5.43;;
67162;SDS011;54092;53.088;8.850;2023-02-28T00:17:14;12.43;;;5.60;;
67162;SDS011;54092;53.088;8.850;2023-02-28T00:19:42;11.55;;;5.13;;
67162;SDS011;54092;53.088;8.850;2023-02-28T00:22:08;9.45;;;5.07;;
67162;SDS011;54092;53.088;8.850;2023-02-28T00:24:34;13.18;;;4.72;;
67162;SDS011;54092;53.088;8.850;2023-02-28T00:26:59;8.52;;;4.35;;
67162;SDS011;54092;53.088;8.850;2023-02-28T00:29:25;11.60;;;5.22;;
67162;SDS011;54092;53.088;8.850;2023-02-28T00:31:50;11.23;;;4.57;;
67162;SDS011;54092;53.088;8.850;2023-02-28T00:34:16;8.77;;;4.57;;
67162;SDS011;54092;53.088;8.850;2023-02-28T00:36:41;12.50;;;4.47;;
67162;SDS011;54092;53.088;8.850;2023-02-28T00:39:10;10.57;;;5.25;;
67162;SDS011;54092;53.088;8.850;2023-02-28T00:41:36;11.80;;;5.00;;
67162;SDS011;54092;53.088;8.850;2023-02-28T00:44:01;11.63;;;5.10;;
67162;SDS011;54092;53.088;8.850;2023-02-28T00:46:27;9.40;;;5.13;;
67162;SDS011;54092;53.088;8.850;2023-02-28T00:48:52;14.43;;;5.38;;
67162;SDS011;54092;53.088;8.850;2023-02-28T00:51:17;9.98;;;5.20;;
67162;SDS011;54092;53.088;8.850;2023-02-28T00:53:43;11.85;;;5.38;;
67162;SDS011;54092;53.088;8.850;2023-02-28T00:56:08;10.77;;;5.30;;
67162;SDS011;54092;53.088;8.850;2023-02-28T00:58:34;11.98;;;5.38;;
67162;SDS011;54092;53.088;8.850;2023-02-28T01:01:00;11.25;;;4.80;;
67162;SDS011;54092;53.088;8.850;2023-02-28T01:03:25;11.20;;;4.88;;
67162;SDS011;54092;53.088;8.850;2023-02-28T01:05:51;10.02;;;4.90;;
67162;SDS011;54092;53.088;8.850;2023-02-28T01:08:18;9.80;;;4.65;;
67162;SDS011;54092;53.088;8.850;2023-02-28T01:10:43;12.68;;;5.45;;
67162;SDS011;54092;53.088;8.850;2023-02-28T01:13:09;11.13;;;4.90;;
67162;SDS011;54092;53.088;8.850;2023-02-28T01:15:35;10.70;;;4.55;;
67162;SDS011;54092;53.088;8.850;2023-02-28T01:18:01;10.90;;;5.10;;
67162;SDS011;54092;53.088;8.850;2023-02-28T01:20:26;10.95;;;4.85;;
67162;SDS011;54092;53.088;8.850;2023-02-28T01:22:52;10.02;;;4.53;;
67162;SDS011;54092;53.088;8.850;2023-02-28T01:25:17;11.82;;;5.05;;
67162;SDS011;54092;53.088;8.850;2023-02-28T01:27:43;11.65;;;5.15;;
67162;SDS011;54092;53.088;8.850;2023-02-28T01:30:08;9.00;;;5.38;;
67162;SDS011;54092;53.088;8.850;2023-02-28T01:32:35;13.68;;;5.20;;
67162;SDS011;54092;53.088;8.850;2023-02-28T01:35:01;9.68;;;5.03;;
67162;SDS011;54092;53.088;8.850;2023-02-28T01:37:26;11.90;;;5.45;;
67162;SDS011;54092;53.088;8.850;2023-02-28T01:39:52;11.00;;;4.80;;
67162;SDS011;54092;53.088;8.850;2023-02-28T01:42:17;10.70;;;4.85;;
67162;SDS011;54092;53.088;8.850;2023-02-28T01:47:29;8.82;;;4.22;;
67162;SDS011;54092;53.088;8.850;2023-02-28T01:50:01;9.52;;;4.45;;
67162;SDS011;54092;53.088;8.850;2023-02-28T01:52:30;13.98;;;4.55;;
67162;SDS011;54092;53.088;8.850;2023-02-28T01:54:57;13.18;;;4.07;;
67162;SDS011;54092;53.088;8.850;2023-02-28T01:57:28;8.73;;;4.23;;
67162;SDS011;54092;53.088;8.850;2023-02-28T02:00:04;8.82;;;3.92;;
67162;SDS011;54092;53.088;8.850;2023-02-28T02:02:34;10.15;;;4.35;;
67162;SDS011;54092;53.088;8.850;2023-02-28T02:05:08;8.55;;;4.53;;
67162;SDS011;54092;53.088;8.850;2023-02-28T02:07:40;8.98;;;4.38;;
67162;SDS011;54092;53.088;8.850;2023-02-28T02:10:13;8.90;;;4.05;;
67162;SDS011;54092;53.088;8.850;2023-02-28T02:16:01;10.50;;;4.75;;
67162;SDS011;54092;53.088;8.850;2023-02-28T02:18:43;12.48;;;5.10;;
67162;SDS011;54092;53.088;8.850;2023-02-28T02:41:00;11.95;;;5.38;;
67162;SDS011;54092;53.088;8.850;2023-02-28T02:43:48;13.45;;;6.03;;
67162;SDS011;54092;53.088;8.850;2023-02-28T02:46:34;10.07;;;5.75;;
67162;SDS011;54092;53.088;8.850;2023-02-28T02:49:04;13.30;;;6.22;;
67162;SDS011;54092;53.088;8.850;2023-02-28T02:51:33;11.43;;;5.45;;
67162;SDS011;54092;53.088;8.850;2023-02-28T02:54:08;14.73;;;6.40;;
67162;SDS011;54092;53.088;8.850;2023-02-28T02:56:41;12.40;;;6.22;;
67162;SDS011;54092;53.088;8.850;2023-02-28T02:59:09;12.57;;;6.45;;
67162;SDS011;54092;53.088;8.850;2023-02-28T03:01:37;16.85;;;6.70;;
67162;SDS011;54092;53.088;8.850;2023-02-28T03:04:09;14.30;;;6.22;;
67162;SDS011;54092;53.088;8.850;2023-02-28T03:06:38;9.98;;;6.22;;
67162;SDS011;54092;53.088;8.850;2023-02-28T03:09:04;12.60;;;5.90;;
67162;SDS011;54092;53.088;8.850;2023-02-28T03:11:29;11.02;;;5.65;;
67162;SDS011;54092;53.088;8.850;2023-02-28T03:19:58;10.23;;;5.83;;
67162;SDS011;54092;53.088;8.850;2023-02-28T03:22:34;10.93;;;6.03;;
67162;SDS011;54092;53.088;8.850;2023-02-28T03:25:35;10.35;;;5.10;;
67162;SDS011;54092;53.088;8.850;2023-02-28T03:31:00;11.75;;;5.57;;
67162;SDS011;54092;53.088;8.850;2023-02-28T03:33:39;10.18;;;5.07;;
67162;SDS011;54092;53.088;8.850;2023-02-28T03:36:13;10.48;;;5.18;;
67162;SDS011;54092;53.088;8.850;2023-02-28T03:38:46;9.98;;;5.13;;
67162;SDS011;54092;53.088;8.850;2023-02-28T03:41:20;9.57;;;4.88;;
67162;SDS011;54092;53.088;8.850;2023-02-28T03:44:01;9.95;;;5.22;;
67162;SDS011;54092;53.088;8.850;2023-02-28T03:46:40;8.05;;;4.47;;
67162;SDS011;54092;53.088;8.850;2023-02-28T03:49:15;8.63;;;4.93;;
67162;SDS011;54092;53.088;8.850;2023-02-28T03:51:47;8.35;;;4.38;;
67162;SDS011;54092;53.088;8.850;2023-02-28T03:54:16;8.32;;;4.38;;
67162;SDS011;54092;53.088;8.850;2023-02-28T03:56:48;7.45;;;4.53;;
67162;SDS011;54092;53.088;8.850;2023-02-28T04:02:19;11.25;;;4.85;;
67162;SDS011;54092;53.088;8.850;2023-02-28T04:04:45;9.10;;;4.72;;
67162;SDS011;54092;53.088;8.850;2023-02-28T04:07:13;10.02;;;4.85;;
67162;SDS011;54092;53.088;8.850;2023-02-28T04:09:39;10.77;;;5.10;;
67162;SDS011;54092;53.088;8.850;2023-02-28T04:12:05;10.50;;;4.85;;
67162;SDS011;54092;53.088;8.850;2023-02-28T04:14:31;10.23;;;4.70;;
67162;SDS011;54092;53.088;8.850;2023-02-28T04:16:56;11.57;;;4.57;;
67162;SDS011;54092;53.088;8.850;2023-02-28T04:19:22;9.48;;;5.18;;
67162;SDS011;54092;53.088;8.850;2023-02-28T04:21:51;9.15;;;4.10;;
67162;SDS011;54092;53.088;8.850;2023-02-28T04:24:19;9.23;;;5.10;;
67162;SDS011;54092;53.088;8.850;2023-02-28T04:26:46;9.35;;;4.80;;
67162;SDS011;54092;53.088;8.850;2023-02-28T04:29:18;7.65;;;4.32;;
67162;SDS011;54092;53.088;8.850;2023-02-28T04:31:48;10.18;;;4.93;;
67162;SDS011;54092;53.088;8.850;2023-02-28T04:34:14;8.35;;;4.55;;
67162;SDS011;54092;53.088;8.850;2023-02-28T04:36:39;10.65;;;4.80;;
67162;SDS011;54092;53.088;8.850;2023-02-28T04:39:05;10.35;;;4.28;;
67162;SDS011;54092;53.088;8.850;2023-02-28T04:41:30;10.60;;;4.60;;
67162;SDS011;54092;53.088;8.850;2023-02-28T04:43:56;9.85;;;4.65;;
67162;SDS011;54092;53.088;8.850;2023-02-28T04:46:22;9.27;;;4.78;;
67162;SDS011;54092;53.088;8.850;2023-02-28T04:48:47;9.57;;;5.05;;
67162;SDS011;54092;53.088;8.850;2023-02-28T04:51:14;13.18;;;4.45;;
67162;SDS011;54092;53.088;8.850;2023-02-28T04:53:41;10.93;;;4.57;;
67162;SDS011;54092;53.088;8.850;2023-02-28T04:56:07;12.07;;;4.82;;
67162;SDS011;54092;53.088;8.850;2023-02-28T04:58:36;10.80;;;4.68;;
67162;SDS011;54092;53.088;8.850;2023-02-28T05:01:14;9.70;;;4.63;;
67162;SDS011;54092;53.088;8.850;2023-02-28T05:03:49;10.52;;;4.63;;
67162;SDS011;54092;53.088;8.850;2023-02-28T05:06:16;10.23;;;4.97;;
67162;SDS011;54092;53.088;8.850;2023-02-28T05:08:42;9.35;;;4.50;;
67162;SDS011;54092;53.088;8.850;2023-02-28T05:11:15;9.57;;;4.55;;
67162;SDS011;54092;53.088;8.850;2023-02-28T05:13:41;9.48;;;5.05;;
67162;SDS011;54092;53.088;8.850;2023-02-28T05:16:06;10.57;;;4.95;;
67162;SDS011;54092;53.088;8.850;2023-02-28T05:18:32;9.73;;;5.30;;
67162;SDS011;54092;53.088;8.850;2023-02-28T05:20:57;9.90;;;4.55;;
67162;SDS011;54092;53.088;8.850;2023-02-28T05:23:27;10.65;;;5.85;;
67162;SDS011;54092;53.088;8.850;2023-02-28T05:25:52;9.40;;;5.15;;
67162;SDS011;54092;53.088;8.850;2023-02-28T05:28:18;12.77;;;5.53;;
67162;SDS011;54092;53.088;8.850;2023-02-28T05:30:44;9.05;;;4.68;;
67162;SDS011;54092;53.088;8.850;2023-02-28T05:33:10;11.27;;;4.65;;
67162;SDS011;54092;53.088;8.850;2023-02-28T05:35:40;11.18;;;4.65;;
67162;SDS011;54092;53.088;8.850;2023-02-28T05:38:07;14.75;;;4.90;;
67162;SDS011;54092;53.088;8.850;2023-02-28T05:40:33;8.38;;;4.20;;
67162;SDS011;54092;53.088;8.850;2023-02-28T05:42:59;10.40;;;4.53;;
67162;SDS011;54092;53.088;8.850;2023-02-28T05:45:24;14.52;;;5.15;;
67162;SDS011;54092;53.088;8.850;2023-02-28T05:47:53;10.48;;;4.60;;
67162;SDS011;54092;53.088;8.850;2023-02-28T05:50:19;12.85;;;4.95;;
67162;SDS011;54092;53.088;8.850;2023-02-28T05:52:48;12.85;;;4.78;;
67162;SDS011;54092;53.088;8.850;2023-02-28T05:55:15;15.88;;;4.97;;
67162;SDS011;54092;53.088;8.850;2023-02-28T05:57:40;10.95;;;4.93;;
67162;SDS011;54092;53.088;8.850;2023-02-28T06:00:07;8.98;;;4.50;;
67162;SDS011;54092;53.088;8.850;2023-02-28T06:02:33;11.35;;;4.47;;
67162;SDS011;54092;53.088;8.850;2023-02-28T06:04:58;9.77;;;4.32;;
67162;SDS011;54092;53.088;8.850;2023-02-28T06:07:24;9.93;;;4.30;;
67162;SDS011;54092;53.088;8.850;2023-02-28T06:09:49;9.02;;;5.00;;
67162;SDS011;54092;53.088;8.850;2023-02-28T06:12:15;13.23;;;5.25;;
67162;SDS011;54092;53.088;8.850;2023-02-28T06:14:40;10.88;;;4.97;;
67162;SDS011;54092;53.088;8.850;2023-02-28T06:17:06;11.82;;;4.93;;
67162;SDS011;54092;53.088;8.850;2023-02-28T06:19:31;11.20;;;5.53;;
67162;SDS011;54092;53.088;8.850;2023-02-28T06:21:57;15.10;;;5.45;;
67162;SDS011;54092;53.088;8.850;2023-02-28T06:24:24;9.32;;;4.78;;
67162;SDS011;54092;53.088;8.850;2023-02-28T06:26:52;10.88;;;5.07;;
67162;SDS011;54092;53.088;8.850;2023-02-28T06:29:18;9.82;;;5.50;;
67162;SDS011;54092;53.088;8.850;2023-02-28T06:31:47;12.60;;;6.38;;
67162;SDS011;54092;53.088;8.850;2023-02-28T06:34:13;12.45;;;5.45;;
67162;SDS011;54092;53.088;8.850;2023-02-28T06:36:39;9.35;;;5.63;;
67162;SDS011;54092;53.088;8.850;2023-02-28T06:39:06;12.35;;;5.30;;
67162;SDS011;54092;53.088;8.850;2023-02-28T06:41:32;12.98;;;6.78;;
67162;SDS011;54092;53.088;8.850;2023-02-28T06:44:02;20.15;;;7.43;;
67162;SDS011;54092;53.088;8.850;2023-02-28T06:46:40;17.10;;;7.70;;
67162;SDS011;54092;53.088;8.850;2023-02-28T06:49:06;17.00;;;7.18;;
67162;SDS011;54092;53.088;8.850;2023-02-28T06:51:36;10.73;;;5.82;;
67162;SDS011;54092;53.088;8.850;2023-02-28T06:54:04;12.65;;;6.53;;
67162;SDS011;54092;53.088;8.850;2023-02-28T06:56:30;10.80;;;5.50;;
67162;SDS011;54092;53.088;8.850;2023-02-28T06:58:55;7.93;;;5.05;;
67162;SDS011;54092;53.088;8.850;2023-02-28T07:01:21;15.02;;;6.32;;
67162;SDS011;54092;53.088;8.850;2023-02-28T07:03:48;11.45;;;5.07;;
67162;SDS011;54092;53.088;8.850;2023-02-28T07:06:17;9.63;;;4.82;;
67162;SDS011;54092;53.088;8.850;2023-02-28T07:08:44;11.23;;;5.68;;
67162;SDS011;54092;53.088;8.850;2023-02-28T07:11:09;13.95;;;5.20;;
67162;SDS011;54092;53.088;8.850;2023-02-28T07:13:36;11.85;;;5.70;;
67162;SDS011;54092;53.088;8.850;2023-02-28T07:16:05;13.10;;;6.25;;
67162;SDS011;54092;53.088;8.850;2023-02-28T07:18:33;10.55;;;5.40;;
67162;SDS011;54092;53.088;8.850;2023-02-28T07:21:03;11.70;;;5.70;;
67162;SDS011;54092;53.088;8.850;2023-02-28T07:23:30;10.63;;;5.13;;
67162;SDS011;54092;53.088;8.850;2023-02-28T07:25:56;11.32;;;5.28;;
67162;SDS011;54092;53.088;8.850;2023-02-28T07:28:22;8.18;;;4.97;;
67162;SDS011;54092;53.088;8.850;2023-02-28T07:30:48;9.23;;;5.20;;
67162;SDS011;54092;53.088;8.850;2023-02-28T07:33:14;9.98;;;5.22;;
67162;SDS011;54092;53.088;8.850;2023-02-28T07:35:40;10.23;;;5.22;;
67162;SDS011;54092;53.088;8.850;2023-02-28T07:38:05;10.10;;;4.70;;
67162;SDS011;54092;53.088;8.850;2023-02-28T07:40:32;9.40;;;4.93;;
67162;SDS011;54092;53.088;8.850;2023-02-28T07:42:59;9.65;;;5.45;;
67162;SDS011;54092;53.088;8.850;2023-02-28T07:45:25;7.97;;;4.93;;
67162;SDS011;54092;53.088;8.850;2023-02-28T07:47:53;11.38;;;5.10;;
67162;SDS011;54092;53.088;8.850;2023-02-28T07:50:19;11.93;;;4.63;;
67162;SDS011;54092;53.088;8.850;2023-02-28T07:52:45;9.52;;;4.70;;
67162;SDS011;54092;53.088;8.850;2023-02-28T07:55:10;10.25;;;4.70;;
67162;SDS011;54092;53.088;8.850;2023-02-28T07:57:36;10.13;;;4.90;;
67162;SDS011;54092;53.088;8.850;2023-02-28T08:00:05;14.05;;;5.05;;
67162;SDS011;54092;53.088;8.850;2023-02-28T08:02:34;11.63;;;6.10;;
67162;SDS011;54092;53.088;8.850;2023-02-28T08:05:00;16.80;;;7.63;;
67162;SDS011;54092;53.088;8.850;2023-02-28T08:07:26;9.75;;;5.13;;
67162;SDS011;54092;53.088;8.850;2023-02-28T08:09:51;9.07;;;4.57;;
67162;SDS011;54092;53.088;8.850;2023-02-28T08:12:17;11.20;;;4.82;;
67162;SDS011;54092;53.088;8.850;2023-02-28T08:14:42;11.68;;;5.70;;
67162;SDS011;54092;53.088;8.850;2023-02-28T08:17:08;10.05;;;5.65;;
67162;SDS011;54092;53.088;8.850;2023-02-28T08:19:35;8.32;;;4.53;;
67162;SDS011;54092;53.088;8.850;2023-02-28T08:22:00;9.35;;;4.38;;
67162;SDS011;54092;53.088;8.850;2023-02-28T08:24:26;7.60;;;4.30;;
67162;SDS011;54092;53.088;8.850;2023-02-28T08:26:51;8.65;;;4.40;;
67162;SDS011;54092;53.088;8.850;2023-02-28T08:29:17;9.45;;;4.45;;
67162;SDS011;54092;53.088;8.850;2023-02-28T08:31:42;8.70;;;4.75;;
67162;SDS011;54092;53.088;8.850;2023-02-28T08:34:08;12.30;;;5.03;;
67162;SDS011;54092;53.088;8.850;2023-02-28T08:36:36;8.55;;;4.15;;
67162;SDS011;54092;53.088;8.850;2023-02-28T08:39:01;7.85;;;4.30;;
67162;SDS011;54092;53.088;8.850;2023-02-28T08:41:28;7.38;;;3.85;;
67162;SDS011;54092;53.088;8.850;2023-02-28T08:43:53;9.65;;;4.00;;
67162;SDS011;54092;53.088;8.850;2023-02-28T08:46:19;9.57;;;4.13;;
67162;SDS011;54092;53.088;8.850;2023-02-28T08:48:44;10.63;;;3.72;;
67162;SDS011;54092;53.088;8.850;2023-02-28T08:51:11;9.70;;;2.72;;
67162;SDS011;54092;53.088;8.850;2023-02-28T08:53:39;6.32;;;2.63;;
67162;SDS011;54092;53.088;8.850;2023-02-28T08:56:08;6.80;;;3.28;;
67162;SDS011;54092;53.088;8.850;2023-02-28T08:58:36;7.53;;;3.47;;
67162;SDS011;54092;53.088;8.850;2023-02-28T09:01:07;5.80;;;2.80;;
67162;SDS011;54092;53.088;8.850;2023-02-28T09:03:35;6.05;;;3.00;;
67162;SDS011;54092;53.088;8.850;2023-02-28T09:06:00;5.22;;;3.00;;
67162;SDS011;54092;53.088;8.850;2023-02-28T09:08:28;6.35;;;3.08;;
67162;SDS011;54092;53.088;8.850;2023-02-28T09:10:55;7.57;;;2.90;;
67162;SDS011;54092;53.088;8.850;2023-02-28T09:13:22;9.25;;;3.40;;
67162;SDS011;54092;53.088;8.850;2023-02-28T09:15:49;9.88;;;3.85;;
67162;SDS011;54092;53.088;8.850;2023-02-28T09:18:15;7.95;;;2.50;;
67162;SDS011;54092;53.088;8.850;2023-02-28T09:20:41;5.57;;;2.85;;
67162;SDS011;54092;53.088;8.850;2023-02-28T09:23:07;6.43;;;2.90;;
67162;SDS011;54092;53.088;8.850;2023-02-28T09:25:34;5.50;;;2.78;;
67162;SDS011;54092;53.088;8.850;2023-02-28T09:28:00;6.05;;;2.90;;
67162;SDS011;54092;53.088;8.850;2023-02-28T09:30:26;7.05;;;2.50;;
67162;SDS011;54092;53.088;8.850;2023-02-28T09:32:51;5.93;;;2.70;;
67162;SDS011;54092;53.088;8.850;2023-02-28T09:35:18;3.83;;;2.10;;
67162;SDS011;54092;53.088;8.850;2023-02-28T09:37:48;7.57;;;2.72;;
67162;SDS011;54092;53.088;8.850;2023-02-28T09:40:16;5.47;;;2.50;;
67162;SDS011;54092;53.088;8.850;2023-02-28T09:42:47;3.95;;;2.15;;
67162;SDS011;54092;53.088;8.850;2023-02-28T09:45:25;5.85;;;2.50;;
67162;SDS011;54092;53.088;8.850;2023-02-28T09:47:56;5.28;;;2.10;;
67162;SDS011;54092;53.088;8.850;2023-02-28T09:50:30;4.15;;;1.90;;
67162;SDS011;54092;53.088;8.850;2023-02-28T09:53:04;5.30;;;2.83;;
67162;SDS011;54092;53.088;8.850;2023-02-28T09:55:41;4.60;;;2.13;;
67162;SDS011;54092;53.088;8.850;2023-02-28T09:58:28;7.88;;;2.75;;
67162;SDS011;54092;53.088;8.850;2023-02-28T10:01:12;4.60;;;2.35;;
67162;SDS011;54092;53.088;8.850;2023-02-28T10:03:43;4.82;;;2.13;;
67162;SDS011;54092;53.088;8.850;2023-02-28T10:06:17;6.30;;;2.28;;
67162;SDS011;54092;53.088;8.850;2023-02-28T10:08:52;3.25;;;1.80;;
67162;SDS011;54092;53.088;8.850;2023-02-28T10:11:26;4.32;;;1.95;;
67162;SDS011;54092;53.088;8.850;2023-02-28T10:16:38;3.80;;;1.90;;
67162;SDS011;54092;53.088;8.850;2023-02-28T10:19:15;4.45;;;2.13;;
67162;SDS011;54092;53.088;8.850;2023-02-28T10:21:48;3.85;;;2.00;;
67162;SDS011;54092;53.088;8.850;2023-02-28T10:24:26;6.65;;;2.58;;
67162;SDS011;54092;53.088;8.850;2023-02-28T10:27:16;8.27;;;2.60;;
67162;SDS011;54092;53.088;8.850;2023-02-28T10:29:43;4.88;;;2.20;;
67162;SDS011;54092;53.088;8.850;2023-02-28T10:32:13;4.93;;;2.38;;
67162;SDS011;54092;53.088;8.850;2023-02-28T10:34:44;3.60;;;2.10;;
67162;SDS011;54092;53.088;8.850;2023-02-28T10:37:16;3.97;;;1.90;;
67162;SDS011;54092;53.088;8.850;2023-02-28T10:39:43;5.45;;;2.58;;
67162;SDS011;54092;53.088;8.850;2023-02-28T10:42:44;5.63;;;1.98;;
67162;SDS011;54092;53.088;8.850;2023-02-28T10:47:40;4.35;;;2.20;;
67162;SDS011;54092;53.088;8.850;2023-02-28T10:50:29;10.52;;;2.50;;
67162;SDS011;54092;53.088;8.850;2023-02-28T10:53:29;5.97;;;2.77;;
67162;SDS011;54092;53.088;8.850;2023-02-28T10:58:31;5.20;;;2.45;;
67162;SDS011;54092;53.088;8.850;2023-02-28T11:04:03;3.75;;;2.20;;
67162;SDS011;54092;53.088;8.850;2023-02-28T11:06:41;5.15;;;2.35;;
67162;SDS011;54092;53.088;8.850;2023-02-28T11:09:23;4.60;;;2.08;;
67162;SDS011;54092;53.088;8.850;2023-02-28T11:11:54;5.25;;;2.53;;
67162;SDS011;54092;53.088;8.850;2023-02-28T11:14:30;4.35;;;2.10;;
67162;SDS011;54092;53.088;8.850;2023-02-28T11:17:00;5.10;;;2.28;;
67162;SDS011;54092;53.088;8.850;2023-02-28T11:19:39;3.60;;;2.22;;
67162;SDS011;54092;53.088;8.850;2023-02-28T11:22:09;3.92;;;2.08;;
67162;SDS011;54092;53.088;8.850;2023-02-28T11:24:37;4.55;;;2.17;;
67162;SDS011;54092;53.088;8.850;2023-02-28T11:33:19;6.35;;;2.55;;
67162;SDS011;54092;53.088;8.850;2023-02-28T11:35:49;6.53;;;2.47;;
67162;SDS011;54092;53.088;8.850;2023-02-28T11:38:16;5.60;;;2.42;;
67162;SDS011;54092;53.088;8.850;2023-02-28T11:43:39;3.78;;;2.47;;
67162;SDS011;54092;53.088;8.850;2023-02-28T11:49:17;4.88;;;2.40;;
67162;SDS011;54092;53.088;8.850;2023-02-28T11:52:00;4.00;;;2.28;;
67162;SDS011;54092;53.088;8.850;2023-02-28T11:54:35;4.13;;;2.42;;
67162;SDS011;54092;53.088;8.850;2023-02-28T11:57:09;4.65;;;2.30;;
67162;SDS011;54092;53.088;8.850;2023-02-28T11:59:45;5.57;;;2.30;;
67162;SDS011;54092;53.088;8.850;2023-02-28T12:05:21;6.18;;;2.22;;
67162;SDS011;54092;53.088;8.850;2023-02-28T12:07:57;3.88;;;2.20;;
67162;SDS011;54092;53.088;8.850;2023-02-28T12:10:29;3.67;;;2.00;;
67162;SDS011;54092;53.088;8.850;2023-02-28T12:13:17;4.38;;;2.42;;
67162;SDS011;54092;53.088;8.850;2023-02-28T12:18:39;5.88;;;2.25;;
67162;SDS011;54092;53.088;8.850;2023-02-28T12:22:03;7.53;;;2.30;;
67162;SDS011;54092;53.088;8.850;2023-02-28T12:24:39;4.38;;;1.80;;
67162;SDS011;54092;53.088;8.850;2023-02-28T12:27:13;4.38;;;2.10;;
67162;SDS011;54092;53.088;8.850;2023-02-28T12:29:55;6.03;;;2.53;;
67162;SDS011;54092;53.088;8.850;2023-02-28T12:32:31;5.43;;;2.30;;
67162;SDS011;54092;53.088;8.850;2023-02-28T12:35:11;6.35;;;3.03;;
67162;SDS011;54092;53.088;8.850;2023-02-28T12:37:45;5.15;;;2.53;;
67162;SDS011;54092;53.088;8.850;2023-02-28T12:40:18;4.00;;;2.30;;
67162;SDS011;54092;53.088;8.850;2023-02-28T12:42:46;4.70;;;2.13;;
67162;SDS011;54092;53.088;8.850;2023-02-28T12:45:20;5.47;;;2.30;;
67162;SDS011;54092;53.088;8.850;2023-02-28T12:48:04;4.80;;;1.95;;
67162;SDS011;54092;53.088;8.850;2023-02-28T12:50:35;4.88;;;2.10;;
67162;SDS011;54092;53.088;8.850;2023-02-28T12:53:15;3.03;;;1.85;;
67162;SDS011;54092;53.088;8.850;2023-02-28T12:56:37;3.55;;;1.90;;
67162;SDS011;54092;53.088;8.850;2023-02-28T12:58:59;3.92;;;1.90;;
67162;SDS011;54092;53.088;8.850;2023-02-28T13:01:38;2.83;;;1.65;;
67162;SDS011;54092;53.088;8.850;2023-02-28T13:07:13;3.30;;;1.73;;
67162;SDS011;54092;53.088;8.850;2023-02-28T13:09:59;3.22;;;1.83;;
67162;SDS011;54092;53.088;8.850;2023-02-28T13:12:26;4.78;;;2.10;;
67162;SDS011;54092;53.088;8.850;2023-02-28T13:15:07;4.68;;;2.20;;
67162;SDS011;54092;53.088;8.850;2023-02-28T13:17:41;3.65;;;2.17;;
67162;SDS011;54092;53.088;8.850;2023-02-28T13:20:16;5.93;;;2.30;;
67162;SDS011;54092;53.088;8.850;2023-02-28T13:22:49;5.85;;;2.00;;
67162;SDS011;54092;53.088;8.850;2023-02-28T13:25:50;4.38;;;2.20;;
67162;SDS011;54092;53.088;8.850;2023-02-28T13:28:09;4.20;;;2.13;;
67162;SDS011;54092;53.088;8.850;2023-02-28T13:33:33;4.60;;;2.08;;
67162;SDS011;54092;53.088;8.850;2023-02-28T13:38:33;3.85;;;2.15;;
67162;SDS011;54092;53.088;8.850;2023-02-28T13:44:07;5.50;;;2.50;;
67162;SDS011;54092;53.088;8.850;2023-02-28T13:51:51;4.65;;;1.90;;
67162;SDS011;54092;53.088;8.850;2023-02-28T13:54:24;2.40;;;1.80;;
67162;SDS011;54092;53.088;8.850;2023-02-28T14:11:46;3.63;;;1.80;;
67162;SDS011;54092;53.088;8.850;2023-02-28T14:14:57;4.50;;;2.10;;
67162;SDS011;54092;53.088;8.850;2023-02-28T14:17:03;6.82;;;2.30;;
67162;SDS011;54092;53.088;8.850;2023-02-28T14:19:38;3.67;;;1.77;;
67162;SDS011;54092;53.088;8.850;2023-02-28T14:25:18;3.63;;;2.03;;
67162;SDS011;54092;53.088;8.850;2023-02-28T14:38:32;5.93;;;2.15;;
67162;SDS011;54092;53.088;8.850;2023-02-28T14:41:02;3.63;;;2.03;;
67162;SDS011;54092;53.088;8.850;2023-02-28T14:43:31;6.30;;;2.08;;
67162;SDS011;54092;53.088;8.850;2023-02-28T14:45:58;7.03;;;2.30;;
67162;SDS011;54092;53.088;8.850;2023-02-28T14:48:26;5.97;;;2.55;;
67162;SDS011;54092;53.088;8.850;2023-02-28T14:50:59;5.45;;;2.05;;
67162;SDS011;54092;53.088;8.850;2023-02-28T14:53:26;4.28;;;2.25;;
67162;SDS011;54092;53.088;8.850;2023-02-28T14:55:54;5.57;;;2.47;;
67162;SDS011;54092;53.088;8.850;2023-02-28T14:58:21;4.60;;;2.13;;
67162;SDS011;54092;53.088;8.850;2023-02-28T15:00:56;6.28;;;2.10;;
67162;SDS011;54092;53.088;8.850;2023-02-28T15:03:31;4.75;;;2.08;;
67162;SDS011;54092;53.088;8.850;2023-02-28T15:06:02;5.20;;;1.88;;
67162;SDS011;54092;53.088;8.850;2023-02-28T15:08:38;3.25;;;1.70;;
67162;SDS011;54092;53.088;8.850;2023-02-28T15:13:39;6.10;;;2.17;;
67162;SDS011;54092;53.088;8.850;2023-02-28T15:16:10;2.92;;;1.80;;
67162;SDS011;54092;53.088;8.850;2023-02-28T15:21:15;3.92;;;2.17;;
67162;SDS011;54092;53.088;8.850;2023-02-28T15:23:44;3.85;;;2.08;;
67162;SDS011;54092;53.088;8.850;2023-02-28T15:26:18;3.70;;;2.00;;
67162;SDS011;54092;53.088;8.850;2023-02-28T15:28:47;6.35;;;2.10;;
67162;SDS011;54092;53.088;8.850;2023-02-28T15:31:24;9.23;;;1.95;;
67162;SDS011;54092;53.088;8.850;2023-02-28T15:33:53;4.40;;;2.20;;
67162;SDS011;54092;53.088;8.850;2023-02-28T15:36:20;3.72;;;2.10;;
67162;SDS011;54092;53.088;8.850;2023-02-28T15:38:54;4.80;;;2.22;;
67162;SDS011;54092;53.088;8.850;2023-02-28T15:41:27;4.03;;;2.10;;
67162;SDS011;54092;53.088;8.850;2023-02-28T15:44:16;7.72;;;2.45;;
67162;SDS011;54092;53.088;8.850;2023-02-28T15:46:57;3.73;;;1.77;;
67162;SDS011;54092;53.088;8.850;2023-02-28T15:49:26;3.65;;;1.85;;
67162;SDS011;54092;53.088;8.850;2023-02-28T15:51:53;5.88;;;2.30;;
67162;SDS011;54092;53.088;8.850;2023-02-28T15:54:23;5.97;;;2.15;;
67162;SDS011;54092;53.088;8.850;2023-02-28T15:56:55;3.30;;;1.80;;
67162;SDS011;54092;53.088;8.850;2023-02-28T15:59:25;5.38;;;2.00;;
67162;SDS011;54092;53.088;8.850;2023-02-28T16:02:15;6.15;;;2.40;;
67162;SDS011;54092;53.088;8.850;2023-02-28T16:07:30;7.03;;;2.10;;
67162;SDS011;54092;53.088;8.850;2023-02-28T16:09:56;3.30;;;1.90;;
67162;SDS011;54092;53.088;8.850;2023-02-28T16:12:24;3.60;;;2.20;;
67162;SDS011;54092;53.088;8.850;2023-02-28T16:14:52;3.95;;;2.20;;
67162;SDS011;54092;53.088;8.850;2023-02-28T16:17:24;7.20;;;2.22;;
67162;SDS011;54092;53.088;8.850;2023-02-28T16:19:52;5.28;;;2.47;;
67162;SDS011;54092;53.088;8.850;2023-02-28T16:22:18;3.63;;;1.90;;
67162;SDS011;54092;53.088;8.850;2023-02-28T16:24:43;6.50;;;2.40;;
67162;SDS011;54092;53.088;8.850;2023-02-28T16:27:20;7.93;;;2.15;;
67162;SDS011;54092;53.088;8.850;2023-02-28T16:29:51;5.40;;;2.25;;
67162;SDS011;54092;53.088;8.850;2023-02-28T16:32:18;3.50;;;2.03;;
67162;SDS011;54092;53.088;8.850;2023-02-28T16:34:44;6.13;;;2.20;;
67162;SDS011;54092;53.088;8.850;2023-02-28T16:37:11;6.18;;;2.17;;
67162;SDS011;54092;53.088;8.850;2023-02-28T16:39:38;4.70;;;2.20;;
67162;SDS011;54092;53.088;8.850;2023-02-28T16:42:04;4.25;;;2.08;;
67162;SDS011;54092;53.088;8.850;2023-02-28T16:44:33;4.78;;;2.10;;
67162;SDS011;54092;53.088;8.850;2023-02-28T16:47:00;3.88;;;2.28;;
67162;SDS011;54092;53.088;8.850;2023-02-28T16:49:27;4.88;;;2.00;;
67162;SDS011;54092;53.088;8.850;2023-02-28T16:51:52;5.05;;;1.90;;
67162;SDS011;54092;53.088;8.850;2023-02-28T16:54:18;4.03;;;1.95;;
67162;SDS011;54092;53.088;8.850;2023-02-28T16:56:44;4.72;;;2.00;;
67162;SDS011;54092;53.088;8.850;2023-02-28T16:59:12;5.22;;;1.92;;